createdAt,value
2017-12-03T00:01:29.149Z,100256.52
2017-12-03T00:04:02.204Z,100248.23
2017-12-03T00:06:33.315Z,100231.17
2017-12-03T00:09:06.898Z,100240.37
2017-12-03T00:11:38.367Z,100238.23
2017-12-03T00:14:18.894Z,100238.91
2017-12-03T00:17:52.709Z,100231.82
2017-12-03T00:20:25.958Z,100236.22
2017-12-03T00:22:58.166Z,100230.63
2017-12-03T00:25:29.820Z,100229.97
2017-12-03T00:28:01.910Z,100230.63
2017-12-03T00:30:35.959Z,100224.20
2017-12-03T00:33:09.789Z,100219.53
2017-12-03T00:35:41.454Z,100221.55
2017-12-03T00:38:14.138Z,100233.13
2017-12-03T00:40:45.849Z,100226.06
2017-12-03T00:43:17.624Z,100223.78
2017-12-03T00:45:48.788Z,100228.45
2017-12-03T00:48:21.068Z,100230.72
2017-12-03T00:50:52.265Z,100226.32
2017-12-03T00:53:23.522Z,100227.68
2017-12-03T00:55:55.006Z,100222.08
2017-12-03T00:58:26.244Z,100224.86
2017-12-03T01:00:58.177Z,100229.79
2017-12-03T01:03:30.755Z,100225.67
2017-12-03T01:06:01.910Z,100228.73
2017-12-03T01:08:33.407Z,100224.89
2017-12-03T01:11:08.823Z,100229.28
2017-12-03T01:13:41.136Z,100221.16
2017-12-03T01:16:15.765Z,100212.07
2017-12-03T01:18:49.029Z,100223.83
2017-12-03T01:21:20.592Z,100222.50
2017-12-03T01:23:52.536Z,100218.36
2017-12-03T01:26:24.886Z,100218.88
2017-12-03T01:28:56.263Z,100212.87
2017-12-03T01:31:27.884Z,100215.94
2017-12-03T01:34:01.071Z,100217.57
2017-12-03T01:36:33.151Z,100212.36
2017-12-03T01:39:05.201Z,100215.59
2017-12-03T01:41:36.649Z,100215.43
2017-12-03T01:44:08.503Z,100212.77
2017-12-03T01:46:40.003Z,100207.69
2017-12-03T01:49:12.010Z,100208.90
2017-12-03T01:51:43.525Z,100204.34
2017-12-03T01:54:28.041Z,100195.70
2017-12-03T01:57:00.044Z,100199.15
2017-12-03T02:06:40.047Z,100189.78
2017-12-03T02:09:12.881Z,100196.46
2017-12-03T02:11:44.274Z,100200.58
2017-12-03T02:14:16.113Z,100188.45
2017-12-03T02:16:48.273Z,100196.05
2017-12-03T02:19:19.680Z,100194.70
2017-12-03T02:21:51.179Z,100190.83
2017-12-03T02:24:22.744Z,100188.30
2017-12-03T02:26:54.180Z,100180.69
2017-12-03T02:29:25.845Z,100185.64
2017-12-03T02:31:56.936Z,100185.64
2017-12-03T02:34:28.398Z,100180.84
2017-12-03T02:37:00.871Z,100187.90
2017-12-03T02:39:32.682Z,100190.56
2017-12-03T02:42:04.020Z,100187.90
2017-12-03T02:44:36.037Z,100183.34
2017-12-03T02:47:07.386Z,100181.34
2017-12-03T02:49:38.590Z,100184.55
2017-12-03T02:52:10.090Z,100180.05
2017-12-03T02:54:41.674Z,100175.88
2017-12-03T02:57:13.998Z,100176.84
2017-12-03T02:59:45.515Z,100172.04
2017-12-03T03:02:17.011Z,100170.43
2017-12-03T03:04:48.323Z,100174.70
2017-12-03T03:07:19.503Z,100167.48
2017-12-03T03:09:50.491Z,100172.82
2017-12-03T03:12:22.448Z,100167.34
2017-12-03T03:14:54.057Z,100159.73
2017-12-03T03:17:25.320Z,100156.64
2017-12-03T03:19:57.563Z,100153.42
2017-12-03T03:22:28.684Z,100161.61
2017-12-03T03:24:59.983Z,100165.23
2017-12-03T03:27:31.321Z,100159.63
2017-12-03T03:30:03.019Z,100152.31
2017-12-03T03:32:34.200Z,100140.28
2017-12-03T03:35:06.002Z,100144.05
2017-12-03T03:37:38.116Z,100145.37
2017-12-03T03:40:09.191Z,100140.73
2017-12-03T03:42:41.432Z,100143.38
2017-12-03T03:45:12.590Z,100148.14
2017-12-03T03:47:43.842Z,100148.02
2017-12-03T03:50:15.591Z,100152.82
2017-12-03T03:52:46.906Z,100148.12
2017-12-03T03:55:17.997Z,100143.59
2017-12-03T03:57:52.143Z,100147.72
2017-12-03T04:00:23.787Z,100148.39
2017-12-03T04:02:56.200Z,100138.09
2017-12-03T04:05:29.096Z,100148.37
2017-12-03T04:08:00.304Z,100142.09
2017-12-03T04:10:31.705Z,100139.30
2017-12-03T04:13:04.744Z,100143.95
2017-12-03T04:15:35.856Z,100144.88
2017-12-03T04:18:06.949Z,100138.90
2017-12-03T04:20:39.040Z,100140.38
2017-12-03T04:23:10.064Z,100138.92
2017-12-03T04:25:41.203Z,100141.86
2017-12-03T04:28:12.596Z,100134.91
2017-12-03T04:30:44.240Z,100126.23
2017-12-03T04:33:16.208Z,100144.70
2017-12-03T04:35:48.380Z,100142.97
2017-12-03T04:38:19.580Z,100146.01
2017-12-03T04:40:51.003Z,100131.19
2017-12-03T04:43:22.300Z,100147.87
2017-12-03T04:45:53.959Z,100139.73
2017-12-03T04:48:25.255Z,100137.22
2017-12-03T04:50:56.547Z,100135.23
2017-12-03T04:53:27.759Z,100138.17
2017-12-03T04:55:59.332Z,100137.77
2017-12-03T04:58:30.776Z,100136.03
2017-12-03T05:01:02.191Z,100138.14
2017-12-03T05:03:33.677Z,100140.95
2017-12-03T05:06:05.040Z,100136.13
2017-12-03T05:08:36.926Z,100137.97
2017-12-03T05:11:15.840Z,100138.49
2017-12-03T05:13:47.424Z,100139.17
2017-12-03T05:16:19.132Z,100140.91
2017-12-03T05:18:50.756Z,100146.34
2017-12-03T05:21:21.936Z,100145.94
2017-12-03T05:23:53.437Z,100152.31
2017-12-03T05:26:25.039Z,100149.63
2017-12-03T05:28:56.332Z,100143.88
2017-12-03T05:31:27.595Z,100138.92
2017-12-03T05:33:59.021Z,100131.31
2017-12-03T05:36:30.538Z,100134.08
2017-12-03T05:39:02.699Z,100139.27
2017-12-03T05:41:34.252Z,100126.89
2017-12-03T05:44:05.614Z,100117.58
2017-12-03T05:46:37.454Z,100123.60
2017-12-03T05:49:09.373Z,100124.98
2017-12-03T05:51:40.680Z,100123.66
2017-12-03T05:54:12.036Z,100122.20
2017-12-03T05:56:45.092Z,100110.72
2017-12-03T05:59:16.477Z,100113.11
2017-12-03T06:01:47.792Z,100098.33
2017-12-03T06:04:19.471Z,100104.22
2017-12-03T06:06:51.143Z,100106.07
2017-12-03T06:09:23.296Z,100111.55
2017-12-03T06:11:54.446Z,100100.90
2017-12-03T06:14:25.938Z,100097.33
2017-12-03T06:16:57.958Z,100098.00
2017-12-03T06:19:29.499Z,100096.67
2017-12-03T06:22:00.920Z,100113.17
2017-12-03T06:24:32.589Z,100101.57
2017-12-03T06:27:03.755Z,100097.02
2017-12-03T06:29:35.965Z,100102.91
2017-12-03T06:32:09.324Z,100100.55
2017-12-03T06:34:40.720Z,100106.41
2017-12-03T06:37:12.962Z,100079.05
2017-12-03T06:39:44.981Z,100094.03
2017-12-03T06:42:16.148Z,100090.69
2017-12-03T06:44:47.696Z,100106.71
2017-12-03T06:47:18.880Z,100094.59
2017-12-03T06:49:50.549Z,100099.40
2017-12-03T06:52:22.563Z,100093.94
2017-12-03T06:54:54.041Z,100093.67
2017-12-03T06:57:25.354Z,100080.35
2017-12-03T06:59:58.998Z,100083.95
2017-12-03T07:02:31.184Z,100083.29
2017-12-03T07:05:02.587Z,100091.41
2017-12-03T07:07:39.510Z,100083.69
2017-12-03T07:10:13.648Z,100071.39
2017-12-03T07:12:45.017Z,100085.59
2017-12-03T07:15:16.608Z,100080.13
2017-12-03T07:17:47.966Z,100085.55
2017-12-03T07:20:19.711Z,100091.83
2017-12-03T07:22:51.479Z,100094.90
2017-12-03T07:25:23.370Z,100091.16
2017-12-03T07:27:54.940Z,100092.36
2017-12-03T07:30:28.988Z,100094.47
2017-12-03T07:33:00.212Z,100096.91
2017-12-03T07:35:31.999Z,100083.97
2017-12-03T07:38:03.453Z,100096.10
2017-12-03T07:40:35.291Z,100096.61
2017-12-03T07:43:07.893Z,100108.64
2017-12-03T07:45:40.460Z,100107.16
2017-12-03T07:48:14.147Z,100098.44
2017-12-03T07:50:45.674Z,100109.67
2017-12-03T07:53:17.235Z,100116.73
2017-12-03T07:55:48.719Z,100110.98
2017-12-03T07:58:19.920Z,100114.85
2017-12-03T08:00:51.782Z,100108.31
2017-12-03T08:03:23.366Z,100108.49
2017-12-03T08:05:55.301Z,100115.17
2017-12-03T08:08:27.809Z,100110.09
2017-12-03T08:11:00.627Z,100112.25
2017-12-03T08:13:31.939Z,100112.63
2017-12-03T08:16:04.218Z,100111.30
2017-12-03T08:18:38.578Z,100109.98
2017-12-03T08:21:13.317Z,100109.81
2017-12-03T08:23:44.772Z,100105.93
2017-12-03T08:26:17.742Z,100104.87
2017-12-03T08:28:50.004Z,100109.02
2017-12-03T08:31:23.391Z,100108.34
2017-12-03T08:33:54.547Z,100091.11
2017-12-03T08:36:26.096Z,100109.52
2017-12-03T08:38:57.746Z,100107.48
2017-12-03T08:41:30.784Z,100110.30
2017-12-03T08:44:02.346Z,100108.16
2017-12-03T08:46:34.140Z,100109.25
2017-12-03T08:49:07.256Z,100106.33
2017-12-03T08:51:40.846Z,100100.83
2017-12-03T08:54:12.603Z,100105.78
2017-12-03T08:56:45.984Z,100107.39
2017-12-03T08:59:17.782Z,100103.39
2017-12-03T09:01:50.143Z,100108.89
2017-12-03T09:04:22.243Z,100106.64
2017-12-03T09:06:53.740Z,100110.27
2017-12-03T09:09:25.503Z,100106.53
2017-12-03T09:11:56.913Z,100096.41
2017-12-03T09:14:28.503Z,100099.09
2017-12-03T09:17:00.409Z,100097.21
2017-12-03T09:19:31.693Z,100103.61
2017-12-03T09:22:05.010Z,100100.95
2017-12-03T09:24:37.628Z,100104.29
2017-12-03T09:27:09.804Z,100097.50
2017-12-03T09:29:46.498Z,100095.91
2017-12-03T09:32:18.614Z,100095.23
2017-12-03T09:34:50.198Z,100089.34
2017-12-03T09:37:22.977Z,100098.03
2017-12-03T09:39:54.919Z,100088.29
2017-12-03T09:42:27.681Z,100102.41
2017-12-03T09:44:59.492Z,100093.61
2017-12-03T09:47:32.013Z,100093.38
2017-12-03T09:50:03.466Z,100093.38
2017-12-03T09:52:36.048Z,100087.63
2017-12-03T09:55:10.596Z,100088.03
2017-12-03T09:57:42.931Z,100093.36
2017-12-03T10:00:17.299Z,100081.37
2017-12-03T10:02:50.617Z,100080.83
2017-12-03T10:05:24.528Z,100084.16
2017-12-03T10:07:56.154Z,100080.01
2017-12-03T10:10:27.527Z,100079.61
2017-12-03T10:12:59.739Z,100074.78
2017-12-03T10:15:31.276Z,100064.92
2017-12-03T10:18:02.744Z,100063.36
2017-12-03T10:20:35.457Z,100051.34
2017-12-03T10:23:07.059Z,100042.30
2017-12-03T10:25:38.718Z,100045.53
2017-12-03T10:28:10.101Z,100041.25
2017-12-03T10:30:41.781Z,100043.42
2017-12-03T10:33:13.717Z,100028.23
2017-12-03T10:35:45.690Z,100039.84
2017-12-03T10:38:21.569Z,100035.58
2017-12-03T10:40:56.170Z,100032.53
2017-12-03T10:43:28.610Z,100023.61
2017-12-03T10:46:02.365Z,100025.88
2017-12-03T10:48:33.954Z,100010.80
2017-12-03T10:51:07.459Z,100014.66
2017-12-03T10:53:38.893Z,100014.79
2017-12-03T10:56:14.275Z,100016.67
2017-12-03T10:58:46.222Z,100014.15
2017-12-03T11:01:18.287Z,100001.48
2017-12-03T11:03:55.868Z,100004.95
2017-12-03T11:06:28.839Z,99997.88
2017-12-03T11:09:00.136Z,99997.08
2017-12-03T11:11:31.640Z,100001.48
2017-12-03T11:14:03.857Z,99994.02
2017-12-03T11:16:36.293Z,99991.48
2017-12-03T11:19:08.015Z,99988.16
2017-12-03T11:21:39.440Z,99988.55
2017-12-03T11:24:11.364Z,99980.95
2017-12-03T11:26:44.035Z,99972.70
2017-12-03T11:29:16.341Z,99984.43
2017-12-03T11:31:49.607Z,99967.34
2017-12-03T11:34:21.428Z,99958.16
2017-12-03T11:36:54.863Z,99962.82
2017-12-03T11:39:26.714Z,99955.91
2017-12-03T11:41:58.934Z,99953.11
2017-12-03T11:44:30.808Z,99944.32
2017-12-03T11:47:02.889Z,99943.92
2017-12-03T11:49:35.446Z,99944.58
2017-12-03T11:52:07.393Z,99948.96
2017-12-03T11:54:40.240Z,99941.52
2017-12-03T11:57:11.738Z,99937.38
2017-12-03T11:59:44.725Z,99942.98
2017-12-03T12:02:17.236Z,99926.86
2017-12-03T12:04:48.877Z,99937.38
2017-12-03T12:07:20.199Z,99933.13
2017-12-03T12:09:53.116Z,99926.30
2017-12-03T12:12:24.417Z,99923.78
2017-12-03T12:14:56.155Z,99928.06
2017-12-03T12:17:27.622Z,99916.19
2017-12-03T12:19:58.910Z,99901.66
2017-12-03T12:22:31.074Z,99903.81
2017-12-03T12:25:02.408Z,99918.84
2017-12-03T12:27:34.107Z,99913.39
2017-12-03T12:30:06.340Z,99908.61
2017-12-03T12:32:37.976Z,99909.92
2017-12-03T12:35:11.851Z,99912.06
2017-12-03T12:37:44.269Z,99904.88
2017-12-03T12:40:15.788Z,99904.45
2017-12-03T12:42:50.351Z,99905.01
2017-12-03T12:45:23.248Z,99903.02
2017-12-03T12:47:55.059Z,99901.01
2017-12-03T12:50:27.777Z,99901.27
2017-12-03T12:52:59.228Z,99896.07
2017-12-03T12:55:30.975Z,99891.67
2017-12-03T12:58:02.913Z,99890.61
2017-12-03T13:00:35.003Z,99885.01
2017-12-03T13:03:06.549Z,99887.55
2017-12-03T13:05:38.859Z,99878.36
2017-12-03T13:08:10.554Z,99882.36
2017-12-03T13:10:42.824Z,99876.60
2017-12-03T13:13:14.496Z,99875.94
2017-12-03T13:15:47.649Z,99876.35
2017-12-03T13:18:19.886Z,99867.44
2017-12-03T13:20:51.309Z,99869.83
2017-12-03T13:23:23.815Z,99865.97
2017-12-03T13:25:56.124Z,99874.48
2017-12-03T13:28:29.274Z,99866.07
2017-12-03T13:31:01.047Z,99858.62
2017-12-03T13:33:32.787Z,99857.45
2017-12-03T13:36:04.517Z,99853.57
2017-12-03T13:38:37.289Z,99850.77
2017-12-03T13:41:09.462Z,99853.28
2017-12-03T13:43:42.496Z,99838.77
2017-12-03T13:46:14.737Z,99841.16
2017-12-03T13:48:47.089Z,99837.70
2017-12-03T13:51:19.538Z,99836.62
2017-12-03T13:53:51.362Z,99825.31
2017-12-03T13:56:23.746Z,99823.72
2017-12-03T13:58:56.508Z,99829.03
2017-12-03T14:01:30.578Z,99817.22
2017-12-03T14:04:03.079Z,99825.59
2017-12-03T14:06:35.177Z,99823.45
2017-12-03T14:09:09.007Z,99826.25
2017-12-03T14:11:42.022Z,99823.98
2017-12-03T14:14:13.878Z,99816.27
2017-12-03T14:16:45.858Z,99806.29
2017-12-03T14:19:19.085Z,99827.31
2017-12-03T14:21:51.135Z,99817.48
2017-12-03T14:24:23.104Z,99803.50
2017-12-03T14:26:55.165Z,99822.14
2017-12-03T14:29:28.541Z,99826.80
2017-12-03T14:32:07.045Z,99823.48
2017-12-03T14:34:40.708Z,99825.86
2017-12-03T14:37:13.880Z,99823.36
2017-12-03T14:39:47.059Z,99820.41
2017-12-03T14:42:19.016Z,99817.87
2017-12-03T14:44:50.907Z,99811.36
2017-12-03T14:47:24.657Z,99809.36
2017-12-03T14:49:57.038Z,99810.71
2017-12-03T14:52:28.739Z,99814.70
2017-12-03T14:55:01.303Z,99810.30
2017-12-03T14:57:35.409Z,99810.71
2017-12-03T15:00:09.542Z,99814.69
2017-12-03T15:02:46.771Z,99811.48
2017-12-03T15:05:19.149Z,99805.89
2017-12-03T15:07:50.590Z,99802.05
2017-12-03T15:10:26.264Z,99815.08
2017-12-03T15:12:58.895Z,99805.64
2017-12-03T15:15:30.974Z,99816.95
2017-12-03T15:18:02.674Z,99812.95
2017-12-03T15:20:34.519Z,99809.22
2017-12-03T15:23:08.083Z,99801.77
2017-12-03T15:25:40.668Z,99808.31
2017-12-03T15:28:13.900Z,99809.90
2017-12-03T15:30:49.760Z,99804.58
2017-12-03T15:33:21.549Z,99799.50
2017-12-03T15:35:53.298Z,99812.81
2017-12-03T15:38:29.748Z,99809.23
2017-12-03T15:41:07.054Z,99809.23
2017-12-03T15:43:42.433Z,99810.69
2017-12-03T15:46:23.272Z,99811.89
2017-12-03T15:48:56.631Z,99810.15
2017-12-03T15:51:36.845Z,99807.38
2017-12-03T15:54:11.132Z,99816.70
2017-12-03T15:56:45.682Z,99817.08
2017-12-03T15:59:26.499Z,99815.20
2017-12-03T16:02:03.528Z,99815.34
2017-12-03T16:04:35.840Z,99822.16
2017-12-03T16:07:08.289Z,99822.67
2017-12-03T16:09:45.803Z,99822.15
2017-12-03T16:12:26.527Z,99822.92
2017-12-03T16:14:58.100Z,99827.61
2017-12-03T16:17:34.118Z,99824.66
2017-12-03T16:20:13.112Z,99836.00
2017-12-03T16:22:48.717Z,99838.12
2017-12-03T16:25:20.763Z,99833.21
2017-12-03T16:27:52.744Z,99837.08
2017-12-03T16:30:26.773Z,99844.81
2017-12-03T16:33:05.521Z,99840.54
2017-12-03T16:35:39.465Z,99830.69
2017-12-03T16:38:15.607Z,99840.25
2017-12-03T16:40:55.989Z,99840.93
2017-12-03T16:43:37.213Z,99839.59
2017-12-03T16:46:22.519Z,99846.40
2017-12-03T16:49:04.179Z,99836.95
2017-12-03T16:51:36.247Z,99837.72
2017-12-03T16:54:17.995Z,99850.80
2017-12-03T16:56:49.559Z,99848.27
2017-12-03T16:59:21.997Z,99841.31
2017-12-03T17:01:53.986Z,99843.45
2017-12-03T17:04:25.739Z,99841.85
2017-12-03T17:06:57.962Z,99840.89
2017-12-03T17:09:29.625Z,99849.97
2017-12-03T17:12:01.275Z,99840.51
2017-12-03T17:14:35.241Z,99843.44
2017-12-03T17:17:12.256Z,99856.52
2017-12-03T17:23:02.569Z,99846.13
2017-12-03T17:25:38.217Z,99844.92
2017-12-03T17:28:10.073Z,99849.59
2017-12-03T17:30:43.696Z,99852.66
2017-12-03T17:33:15.845Z,99854.25
2017-12-03T17:35:47.158Z,99852.64
2017-12-03T17:38:18.360Z,99850.92
2017-12-03T17:40:49.528Z,99834.77
2017-12-03T17:43:22.792Z,99848.92
2017-12-03T17:45:54.289Z,99851.45
2017-12-03T17:48:26.780Z,99855.58
2017-12-03T17:51:23.915Z,99843.84
2017-12-03T17:54:00.678Z,99847.85
2017-12-03T17:56:41.916Z,99840.94
2017-12-03T17:59:34.981Z,99849.58
2017-12-03T18:02:16.512Z,99856.66
2017-12-03T18:05:00.029Z,99847.32
2017-12-03T18:07:35.182Z,99858.24
2017-12-03T18:10:18.533Z,99849.45
2017-12-03T18:13:02.229Z,99856.77
2017-12-03T18:15:40.004Z,99866.48
2017-12-03T18:18:27.288Z,99856.76
2017-12-03T18:21:06.866Z,99858.78
2017-12-03T18:24:09.627Z,99862.38
2017-12-03T18:30:41.167Z,99863.05
2017-12-03T18:33:37.505Z,99858.50
2017-12-03T18:36:42.805Z,99866.51
2017-12-03T18:39:26.173Z,99859.70
2017-12-03T18:44:48.259Z,99870.50
2017-12-03T18:48:26.300Z,99856.34
2017-12-03T18:51:02.939Z,99880.90
2017-12-03T18:59:50.039Z,99883.16
2017-12-03T19:02:23.414Z,99880.34
2017-12-03T19:07:45.040Z,99878.48
2017-12-03T19:10:16.834Z,99885.27
2017-12-03T19:12:48.700Z,99888.60
2017-12-03T19:15:33.130Z,99886.59
2017-12-03T19:18:05.848Z,99883.42
2017-12-03T19:20:42.887Z,99885.66
2017-12-03T19:23:14.633Z,99887.42
2017-12-03T19:25:47.866Z,99885.95
2017-12-03T19:28:19.268Z,99891.27
2017-12-03T19:30:51.060Z,99885.80
2017-12-03T19:33:23.352Z,99872.49
2017-12-03T19:35:54.576Z,99876.75
2017-12-03T19:38:31.636Z,99872.76
2017-12-03T19:41:12.217Z,99879.44
2017-12-03T19:43:44.213Z,99882.61
2017-12-03T19:46:22.779Z,99878.48
2017-12-03T19:48:54.501Z,99877.55
2017-12-03T19:51:31.001Z,99874.48
2017-12-03T19:54:09.516Z,99869.42
2017-12-03T19:56:41.874Z,99880.08
2017-12-03T19:59:14.456Z,99879.03
2017-12-03T20:01:51.935Z,99880.74
2017-12-03T20:04:24.357Z,99882.23
2017-12-03T20:06:55.883Z,99882.48
2017-12-03T20:09:27.363Z,99889.02
2017-12-03T20:11:58.917Z,99885.96
2017-12-03T20:14:30.315Z,99881.03
2017-12-03T20:17:01.649Z,99887.68
2017-12-03T20:19:33.462Z,99873.69
2017-12-03T20:22:04.803Z,99873.44
2017-12-03T20:24:36.631Z,99878.62
2017-12-03T20:27:08.687Z,99875.44
2017-12-03T20:29:40.125Z,99869.71
2017-12-03T20:32:15.581Z,99876.75
2017-12-03T20:34:47.376Z,99880.09
2017-12-03T20:37:19.556Z,99875.03
2017-12-03T20:39:54.827Z,99876.36
2017-12-03T20:42:26.827Z,99872.63
2017-12-03T20:44:59.868Z,99865.16
2017-12-03T20:47:32.171Z,99877.16
2017-12-03T20:50:04.965Z,99877.95
2017-12-03T20:52:36.228Z,99871.04
2017-12-03T20:55:09.241Z,99874.75
2017-12-03T20:57:42.230Z,99862.36
2017-12-03T21:00:16.813Z,99864.25
2017-12-03T21:02:48.793Z,99878.90
2017-12-03T21:05:22.065Z,99870.24
2017-12-03T21:07:53.691Z,99873.44
2017-12-03T21:10:27.362Z,99869.84
2017-12-03T21:12:58.815Z,99875.70
2017-12-03T21:15:31.212Z,99880.09
2017-12-03T21:18:03.888Z,99876.75
2017-12-03T21:20:35.132Z,99878.74
2017-12-03T21:23:06.465Z,99880.48
2017-12-03T21:25:38.499Z,99884.36
2017-12-03T21:28:10.018Z,99886.47
2017-12-03T21:30:41.392Z,99888.89
2017-12-03T21:33:12.754Z,99885.16
2017-12-03T21:35:44.246Z,99883.54
2017-12-03T21:38:15.918Z,99886.50
2017-12-03T21:40:47.501Z,99889.55
2017-12-03T21:43:18.791Z,99895.81
2017-12-03T21:45:50.540Z,99894.21
2017-12-03T21:48:21.772Z,99895.95
2017-12-03T21:50:53.585Z,99894.61
2017-12-03T21:53:24.642Z,99898.21
2017-12-03T21:55:55.806Z,99895.41
2017-12-03T21:58:27.279Z,99896.06
2017-12-03T22:00:58.613Z,99899.67
2017-12-03T22:03:29.775Z,99902.34
2017-12-03T22:06:01.405Z,99897.02
2017-12-03T22:08:32.569Z,99895.13
2017-12-03T22:11:03.584Z,99888.88
2017-12-03T22:13:35.157Z,99892.08
2017-12-03T22:16:06.450Z,99899.92
2017-12-03T22:18:37.484Z,99906.47
2017-12-03T22:21:09.974Z,99909.01
2017-12-03T22:23:40.952Z,99903.13
2017-12-03T22:26:12.310Z,99901.95
2017-12-03T22:28:43.686Z,99898.34
2017-12-03T22:31:14.621Z,99903.28
2017-12-03T22:33:45.905Z,99899.54
2017-12-03T22:36:17.661Z,99904.19
2017-12-03T22:38:48.710Z,99905.02
2017-12-03T22:41:20.023Z,99921.39
2017-12-03T22:43:52.007Z,99914.34
2017-12-03T22:46:23.882Z,99917.00
2017-12-03T22:48:56.078Z,99919.94
2017-12-03T22:51:29.217Z,99917.13
2017-12-03T22:54:00.523Z,99928.86
2017-12-03T22:56:32.799Z,99929.63
2017-12-03T22:59:03.956Z,99928.43
2017-12-03T23:01:35.392Z,99920.20
2017-12-03T23:04:06.824Z,99923.66
2017-12-03T23:06:38.120Z,99923.10
2017-12-03T23:09:09.221Z,99921.93
2017-12-03T23:11:40.358Z,99922.70
2017-12-03T23:14:11.746Z,99922.97
2017-12-03T23:16:42.823Z,99918.72
2017-12-03T23:19:13.900Z,99920.04
2017-12-03T23:21:45.614Z,99916.05
2017-12-03T23:24:16.937Z,99914.72
2017-12-03T23:26:49.086Z,99924.32
2017-12-03T23:29:21.605Z,99919.65
2017-12-03T23:31:52.930Z,99916.98
2017-12-03T23:34:24.568Z,99921.66
2017-12-03T23:36:55.646Z,99912.19
2017-12-03T23:39:26.653Z,99910.07
2017-12-03T23:41:58.896Z,99917.24
2017-12-03T23:44:30.863Z,99910.98
2017-12-03T23:47:02.401Z,99915.91
2017-12-03T23:49:33.548Z,99916.05
2017-12-03T23:52:05.173Z,99921.64
2017-12-03T23:54:37.347Z,99919.63
2017-12-03T23:57:08.756Z,99927.64
2017-12-03T23:59:39.884Z,99927.38
